Time;durP1;ratioP1;P1;durP2;ratioP2;P2;SDS_P1;SDS_P2;PMS_P1;PMS_P2;Temp;Humidity;BMP_temperature;BMP_pressure;BME280_temperature;BME280_humidity;BME280_pressure;Samples;Min_cycle;Max_cycle;Signal;HPM_P1;HPM_P2
2022/01/15 00:01:55;;;;;;;20.67;9.20;;;5.80;99.90;;;;;;5035041;28;20528;-70
2022/01/15 00:04:22;;;;;;;22.77;7.20;;;5.80;99.90;;;;;;5040196;28;20496;-70
2022/01/15 00:06:49;;;;;;;17.00;7.30;;;5.80;99.90;;;;;;5035242;28;20470;-68
2022/01/15 00:09:16;;;;;;;18.03;10.40;;;5.80;99.90;;;;;;5033193;28;20429;-69
2022/01/15 00:11:44;;;;;;;21.57;8.53;;;5.70;99.90;;;;;;5032742;28;20516;-69
2022/01/15 00:14:12;;;;;;;20.13;8.30;;;5.70;99.90;;;;;;5035574;28;20440;-68
2022/01/15 00:16:47;;;;;;;22.33;9.00;;;5.80;99.90;;;;;;5041013;28;20528;-68
2022/01/15 00:19:17;;;;;;;20.97;8.80;;;5.90;99.90;;;;;;5044728;28;20436;-69
2022/01/15 00:21:45;;;;;;;12.83;6.80;;;5.90;99.90;;;;;;5037404;28;22657;-68
2022/01/15 00:24:12;;;;;;;22.10;10.80;;;5.80;99.90;;;;;;5027453;28;20516;-67
2022/01/15 00:26:39;;;;;;;16.13;6.97;;;5.80;99.90;;;;;;5039981;28;20580;-70
2022/01/15 00:29:06;;;;;;;28.17;8.23;;;5.80;99.90;;;;;;5035545;28;20566;-69
2022/01/15 00:31:34;;;;;;;21.57;7.43;;;5.80;99.90;;;;;;5033650;28;20570;-70
2022/01/15 00:34:01;;;;;;;17.77;6.27;;;5.90;99.90;;;;;;5035142;28;21230;-67
2022/01/15 00:36:29;;;;;;;17.50;7.73;;;5.90;99.90;;;;;;5041663;28;20452;-69
2022/01/15 00:38:56;;;;;;;26.30;9.10;;;5.80;99.90;;;;;;5028779;28;20432;-67
2022/01/15 00:41:23;;;;;;;16.73;8.37;;;5.80;99.90;;;;;;5020532;28;20533;-67
2022/01/15 00:43:50;;;;;;;15.83;8.60;;;5.60;99.90;;;;;;5028754;28;20489;-69
2022/01/15 00:46:17;;;;;;;30.40;10.53;;;5.60;99.90;;;;;;5034432;28;20545;-69
2022/01/15 00:48:44;;;;;;;14.47;6.80;;;5.70;99.90;;;;;;5032643;28;21876;-70
2022/01/15 00:51:11;;;;;;;18.50;9.37;;;5.70;99.90;;;;;;5033067;28;20464;-68
2022/01/15 00:53:39;;;;;;;21.87;9.73;;;5.60;99.90;;;;;;5031061;28;20625;-69
2022/01/15 00:56:06;;;;;;;28.83;7.33;;;5.80;99.90;;;;;;5031233;28;20566;-67
2022/01/15 00:58:33;;;;;;;21.37;9.33;;;5.50;99.90;;;;;;5037581;28;20571;-67
2022/01/15 01:01:00;;;;;;;22.63;9.97;;;5.50;99.90;;;;;;5034783;28;20527;-68
2022/01/15 01:03:27;;;;;;;17.93;6.73;;;5.60;99.90;;;;;;5026164;28;20482;-67
2022/01/15 01:05:54;;;;;;;19.37;10.53;;;5.60;99.90;;;;;;5026416;28;20428;-67
2022/01/15 01:08:21;;;;;;;18.73;7.63;;;5.60;99.90;;;;;;5031399;28;20453;-67
2022/01/15 01:10:54;;;;;;;17.30;7.73;;;5.70;99.90;;;;;;5033016;28;20441;-67
2022/01/15 01:24:35;;;;;;;17.23;6.80;;;5.80;99.90;;;;;;5018627;28;20464;-67
2022/01/15 01:27:10;;;;;;;35.17;9.33;;;5.90;99.90;;;;;;5030254;28;20461;-66
2022/01/15 01:29:49;;;;;;;18.60;7.57;;;5.80;99.90;;;;;;5028799;28;20437;-68
2022/01/15 01:32:33;;;;;;;22.57;9.87;;;5.80;99.90;;;;;;5038862;28;20477;-67
2022/01/15 01:35:07;;;;;;;28.83;7.83;;;5.80;99.90;;;;;;5031146;28;20540;-67
2022/01/15 01:37:38;;;;;;;16.70;6.70;;;5.90;99.90;;;;;;5039502;28;21477;-66
2022/01/15 01:40:17;;;;;;;13.27;7.00;;;5.80;99.90;;;;;;5036861;28;20457;-67
2022/01/15 01:42:56;;;;;;;17.30;6.67;;;5.80;99.90;;;;;;5040145;28;20483;-66
2022/01/15 01:45:23;;;;;;;14.20;6.07;;;5.90;99.90;;;;;;5030186;28;21224;-68
2022/01/15 01:47:51;;;;;;;11.30;6.80;;;6.00;99.90;;;;;;5025233;28;20807;-68
2022/01/15 01:50:20;;;;;;;17.07;7.60;;;6.00;99.90;;;;;;5027205;28;20444;-68
2022/01/15 01:52:51;;;;;;;17.10;8.40;;;5.90;99.90;;;;;;5030211;28;20867;-66
2022/01/15 01:55:22;;;;;;;19.90;7.13;;;5.90;99.90;;;;;;5027295;28;22666;-68
2022/01/15 01:57:51;;;;;;;20.50;7.50;;;5.80;99.90;;;;;;5036187;28;20425;-66
2022/01/15 02:00:20;;;;;;;15.47;7.30;;;5.80;99.90;;;;;;5021085;28;20451;-67
2022/01/15 02:02:47;;;;;;;18.30;7.63;;;5.90;99.90;;;;;;5029428;28;20452;-66
2022/01/15 02:05:15;;;;;;;21.60;7.90;;;5.80;99.90;;;;;;5029656;28;20647;-67
2022/01/15 02:07:43;;;;;;;17.50;7.60;;;5.80;99.90;;;;;;5044081;28;20531;-66
2022/01/15 02:10:13;;;;;;;22.57;7.33;;;5.90;99.90;;;;;;5040795;28;20485;-66
2022/01/15 02:12:41;;;;;;;16.40;8.30;;;5.90;99.90;;;;;;5036755;28;20452;-66
2022/01/15 02:15:13;;;;;;;13.83;8.70;;;5.80;99.90;;;;;;5026516;28;20461;-68
2022/01/15 02:17:40;;;;;;;18.63;6.03;;;5.80;99.90;;;;;;5040680;28;20959;-68
2022/01/15 02:20:23;;;;;;;22.57;6.60;;;5.90;99.90;;;;;;5034206;28;20551;-67
2022/01/15 02:25:43;;;;;;;20.00;8.40;;;5.80;99.90;;;;;;5032276;28;20795;-67
2022/01/15 02:28:10;;;;;;;12.33;5.27;;;5.80;99.90;;;;;;5037909;28;20452;-69
2022/01/15 02:30:38;;;;;;;20.43;6.27;;;5.90;99.90;;;;;;5040221;28;21163;-67
2022/01/15 02:33:06;;;;;;;20.03;8.43;;;5.90;99.90;;;;;;5032663;28;20463;-68
2022/01/15 02:35:35;;;;;;;18.57;8.50;;;5.90;99.90;;;;;;5034861;28;21518;-66
2022/01/15 02:38:03;;;;;;;16.53;6.97;;;5.70;99.90;;;;;;5032868;28;20429;-67
2022/01/15 02:40:32;;;;;;;27.47;7.97;;;5.80;99.90;;;;;;5040088;28;20500;-68
2022/01/15 02:43:04;;;;;;;27.10;7.40;;;5.80;99.90;;;;;;5032797;28;20525;-66
2022/01/15 02:45:32;;;;;;;18.63;6.97;;;5.70;99.90;;;;;;5038412;28;20509;-68
2022/01/15 02:48:02;;;;;;;15.23;6.87;;;5.80;99.90;;;;;;5049809;28;20478;-68
2022/01/15 02:50:30;;;;;;;19.00;9.00;;;5.80;99.90;;;;;;5037015;28;20443;-67
2022/01/15 02:53:02;;;;;;;12.60;6.27;;;5.80;99.90;;;;;;5039200;28;20491;-68
2022/01/15 02:55:29;;;;;;;14.77;8.07;;;5.90;99.90;;;;;;5032660;28;20433;-67
2022/01/15 02:57:56;;;;;;;13.70;6.63;;;5.70;99.90;;;;;;5036732;28;20616;-67
2022/01/15 03:00:24;;;;;;;18.80;6.90;;;5.70;99.90;;;;;;5037657;28;20474;-67
2022/01/15 03:02:50;;;;;;;19.57;8.23;;;5.80;99.90;;;;;;5035058;28;22079;-69
2022/01/15 03:05:18;;;;;;;13.47;5.43;;;5.90;99.90;;;;;;5040618;28;20983;-67
2022/01/15 03:07:45;;;;;;;11.70;6.70;;;5.80;99.90;;;;;;5035584;28;20685;-67
2022/01/15 03:10:13;;;;;;;7.23;4.70;;;5.80;99.90;;;;;;5032959;28;20517;-66
2022/01/15 03:12:40;;;;;;;15.97;8.03;;;5.90;99.90;;;;;;5028775;28;20490;-66
2022/01/15 03:15:09;;;;;;;16.47;6.17;;;5.80;99.90;;;;;;5033272;28;20523;-67
2022/01/15 03:17:36;;;;;;;18.80;7.67;;;5.80;99.90;;;;;;5031516;28;21070;-67
2022/01/15 03:20:06;;;;;;;16.60;7.70;;;5.80;99.90;;;;;;5028675;28;20464;-66
2022/01/15 03:22:33;;;;;;;22.20;7.03;;;5.80;99.90;;;;;;5027781;28;20568;-66
2022/01/15 03:25:00;;;;;;;16.93;6.63;;;5.80;99.90;;;;;;5034722;28;20594;-67
2022/01/15 03:27:28;;;;;;;21.90;10.47;;;5.90;99.90;;;;;;5046994;28;20458;-67
2022/01/15 03:29:55;;;;;;;19.50;7.17;;;5.80;99.90;;;;;;5038679;28;20623;-68
2022/01/15 03:32:22;;;;;;;18.93;7.30;;;5.80;99.90;;;;;;5036647;28;20461;-66
2022/01/15 03:34:50;;;;;;;17.87;6.10;;;5.80;99.90;;;;;;5031534;28;20927;-68
2022/01/15 03:37:18;;;;;;;11.70;5.53;;;5.80;99.90;;;;;;5032014;28;20461;-68
2022/01/15 03:39:45;;;;;;;18.77;7.10;;;5.80;99.90;;;;;;5039654;28;20867;-66
2022/01/15 03:42:12;;;;;;;16.57;6.73;;;5.80;99.90;;;;;;5037459;28;20478;-68
2022/01/15 03:44:43;;;;;;;18.30;6.80;;;5.80;99.90;;;;;;5035487;28;20439;-69
2022/01/15 03:47:10;;;;;;;25.40;11.67;;;5.90;99.90;;;;;;5035559;28;20557;-68
2022/01/15 03:49:38;;;;;;;17.33;7.93;;;6.00;99.90;;;;;;5035396;28;20579;-69
2022/01/15 03:52:05;;;;;;;14.07;7.17;;;5.90;99.90;;;;;;5030289;28;20460;-67
2022/01/15 03:54:32;;;;;;;16.40;9.00;;;5.90;99.90;;;;;;5030836;28;20571;-67
2022/01/15 03:57:00;;;;;;;19.20;7.27;;;6.00;99.90;;;;;;5037566;28;20464;-65
2022/01/15 03:59:27;;;;;;;15.73;6.67;;;6.00;99.90;;;;;;5026781;28;20539;-67
2022/01/15 04:01:55;;;;;;;24.00;6.87;;;6.00;99.90;;;;;;5025657;28;20641;-66
2022/01/15 04:04:23;;;;;;;18.63;8.93;;;5.90;99.90;;;;;;5032915;28;20462;-68
2022/01/15 04:06:50;;;;;;;19.27;8.87;;;5.90;99.90;;;;;;5013161;28;22462;-66
2022/01/15 04:09:18;;;;;;;10.60;7.10;;;5.90;99.90;;;;;;5043602;28;20985;-66
2022/01/15 04:11:45;;;;;;;19.83;6.77;;;5.90;99.90;;;;;;5056497;28;20451;-66
2022/01/15 04:14:13;;;;;;;18.00;7.30;;;5.90;99.90;;;;;;5056071;28;20548;-66
2022/01/15 04:16:40;;;;;;;14.20;8.90;;;5.80;99.90;;;;;;5052339;28;20691;-66
2022/01/15 04:19:08;;;;;;;20.10;8.57;;;5.90;99.90;;;;;;5046654;28;20480;-67
2022/01/15 04:21:36;;;;;;;15.20;8.87;;;5.90;99.90;;;;;;5048286;28;20533;-67
2022/01/15 04:24:04;;;;;;;19.13;8.43;;;5.80;99.90;;;;;;5052247;28;20464;-67
2022/01/15 04:26:33;;;;;;;13.80;6.40;;;5.80;99.90;;;;;;5041475;28;20465;-67
2022/01/15 04:29:04;;;;;;;18.80;8.03;;;5.90;99.90;;;;;;5057486;28;20445;-67
2022/01/15 04:31:45;;;;;;;20.07;6.40;;;5.80;99.90;;;;;;5052517;28;23590;-67
2022/01/15 04:34:15;;;;;;;13.73;5.47;;;5.70;99.90;;;;;;5049963;28;21076;-66
2022/01/15 04:36:42;;;;;;;11.33;5.27;;;5.70;99.90;;;;;;5058459;28;20545;-66
2022/01/15 04:39:10;;;;;;;7.23;5.13;;;5.80;99.90;;;;;;5052455;28;20430;-67
2022/01/15 04:41:37;;;;;;;21.33;7.30;;;5.70;99.90;;;;;;5056998;28;21666;-66
2022/01/15 04:44:05;;;;;;;12.70;5.83;;;5.80;99.90;;;;;;5054286;28;20493;-66
2022/01/15 04:46:32;;;;;;;16.50;7.50;;;5.80;99.90;;;;;;5055714;28;20447;-68
2022/01/15 04:48:59;;;;;;;20.60;7.67;;;5.60;99.90;;;;;;5037084;28;20652;-67
2022/01/15 04:51:28;;;;;;;11.53;6.00;;;5.40;99.90;;;;;;5056292;28;20571;-67
2022/01/15 04:53:55;;;;;;;6.37;4.10;;;5.40;99.90;;;;;;5056327;28;20510;-66
2022/01/15 04:56:22;;;;;;;14.80;5.33;;;5.30;99.90;;;;;;5050967;28;20790;-67
2022/01/15 04:58:49;;;;;;;12.80;4.83;;;5.30;99.90;;;;;;5043567;28;21213;-67
2022/01/15 05:01:16;;;;;;;17.10;7.13;;;5.30;99.90;;;;;;5050883;28;20452;-66
2022/01/15 05:03:43;;;;;;;9.83;5.87;;;5.20;99.90;;;;;;5048596;28;20551;-67
2022/01/15 05:06:10;;;;;;;9.13;3.83;;;5.10;99.90;;;;;;5053068;28;21741;-67
2022/01/15 05:08:40;;;;;;;16.10;6.33;;;5.10;99.90;;;;;;5049847;28;21171;-67
2022/01/15 05:11:14;;;;;;;13.97;5.80;;;5.00;99.90;;;;;;5048616;28;20429;-67
2022/01/15 05:13:41;;;;;;;13.20;6.13;;;5.10;99.90;;;;;;5062690;28;20486;-67
2022/01/15 05:16:08;;;;;;;12.73;6.67;;;5.10;99.90;;;;;;5055613;28;20660;-66
2022/01/15 05:18:35;;;;;;;10.87;5.90;;;5.10;99.90;;;;;;5050180;28;20828;-67
2022/01/15 05:21:02;;;;;;;2.67;2.00;;;5.10;99.90;;;;;;5058495;28;20532;-68
2022/01/15 05:23:29;;;;;;;5.30;3.67;;;5.00;99.90;;;;;;5056467;28;20503;-68
2022/01/15 05:25:58;;;;;;;10.67;4.27;;;4.90;99.90;;;;;;5050734;28;20577;-67
2022/01/15 05:28:25;;;;;;;8.10;4.20;;;4.90;99.90;;;;;;5047914;28;20506;-67
2022/01/15 05:30:52;;;;;;;7.97;4.40;;;4.80;99.90;;;;;;5058885;28;20538;-67
2022/01/15 05:33:19;;;;;;;3.63;2.43;;;4.70;99.90;;;;;;5058914;28;20521;-67
2022/01/15 05:35:46;;;;;;;2.60;1.47;;;4.80;99.90;;;;;;5057562;28;20970;-67
2022/01/15 05:38:13;;;;;;;2.67;1.97;;;4.70;99.90;;;;;;5054143;28;20628;-67
2022/01/15 05:40:40;;;;;;;3.93;2.10;;;4.60;99.90;;;;;;5064323;28;21002;-67
2022/01/15 05:43:08;;;;;;;9.80;3.97;;;4.60;99.90;;;;;;5047286;28;20460;-67
2022/01/15 05:45:35;;;;;;;5.80;3.70;;;4.70;99.90;;;;;;5055718;28;20521;-68
2022/01/15 05:48:02;;;;;;;4.50;3.23;;;4.70;99.90;;;;;;5050459;28;20440;-67
2022/01/15 05:50:29;;;;;;;8.60;5.33;;;4.70;99.90;;;;;;5054199;28;20457;-67
2022/01/15 05:52:58;;;;;;;6.17;3.77;;;4.60;99.90;;;;;;5054397;28;20598;-68
2022/01/15 05:55:25;;;;;;;4.40;2.30;;;4.70;99.90;;;;;;5064130;28;20464;-65
2022/01/15 05:57:52;;;;;;;11.13;4.30;;;4.60;99.90;;;;;;5062776;28;20476;-66
2022/01/15 06:00:20;;;;;;;1.87;1.70;;;4.60;99.90;;;;;;5057806;28;20477;-67
2022/01/15 06:02:47;;;;;;;2.37;2.10;;;4.50;99.90;;;;;;5056752;28;20449;-66
2022/01/15 06:05:14;;;;;;;7.10;3.10;;;4.50;99.90;;;;;;5062773;28;20464;-68
2022/01/15 06:07:41;;;;;;;1.70;1.60;;;4.40;99.90;;;;;;5067596;28;20527;-67
2022/01/15 06:10:09;;;;;;;3.17;2.47;;;4.40;99.90;;;;;;5053658;28;20466;-66
2022/01/15 06:12:42;;;;;;;1.40;1.30;;;4.30;99.90;;;;;;5048672;28;20553;-67
2022/01/15 06:15:11;;;;;;;5.53;2.70;;;4.30;99.90;;;;;;5051914;28;20462;-67
2022/01/15 06:17:40;;;;;;;7.23;3.63;;;4.30;99.90;;;;;;5062749;28;20432;-68
2022/01/15 06:20:08;;;;;;;10.03;4.40;;;4.30;99.90;;;;;;5056932;28;20567;-66
2022/01/15 06:22:35;;;;;;;4.50;3.60;;;4.40;99.90;;;;;;5051418;28;20464;-67
2022/01/15 06:25:03;;;;;;;3.20;2.30;;;4.40;99.90;;;;;;5056760;28;20453;-68
2022/01/15 06:27:30;;;;;;;5.23;3.93;;;4.40;99.90;;;;;;5061314;28;20549;-68
2022/01/15 06:29:58;;;;;;;1.63;1.30;;;4.40;99.90;;;;;;5064936;28;20638;-69
2022/01/15 06:32:25;;;;;;;5.33;3.23;;;4.40;99.90;;;;;;5056178;28;20482;-67
2022/01/15 06:34:54;;;;;;;8.80;3.97;;;4.40;99.90;;;;;;5060058;28;20472;-66
2022/01/15 06:37:21;;;;;;;8.57;3.53;;;4.30;99.90;;;;;;5054001;28;20473;-67
2022/01/15 06:39:49;;;;;;;4.80;3.00;;;4.50;99.90;;;;;;5052028;28;20569;-66
2022/01/15 06:42:16;;;;;;;5.90;3.77;;;4.40;99.90;;;;;;5060140;28;20518;-66
2022/01/15 06:44:43;;;;;;;4.73;3.10;;;4.50;99.90;;;;;;5032568;28;20466;-67
2022/01/15 06:47:10;;;;;;;10.23;5.70;;;4.50;99.90;;;;;;5045749;28;20514;-67
2022/01/15 06:49:37;;;;;;;7.80;3.83;;;4.50;99.90;;;;;;5048259;28;21297;-66
2022/01/15 06:52:06;;;;;;;7.23;3.50;;;4.50;99.90;;;;;;5042482;28;20455;-67
2022/01/15 06:54:33;;;;;;;7.03;3.73;;;4.60;99.90;;;;;;5053047;28;20455;-66
2022/01/15 06:57:00;;;;;;;14.07;5.80;;;4.70;99.90;;;;;;5054433;28;20576;-67
2022/01/15 06:59:27;;;;;;;15.77;6.33;;;4.90;99.90;;;;;;5054021;28;20606;-67
2022/01/15 07:01:54;;;;;;;10.10;2.77;;;4.90;99.90;;;;;;5050422;28;20581;-66
2022/01/15 07:04:21;;;;;;;6.67;3.10;;;4.70;99.90;;;;;;5044333;28;20972;-66
2022/01/15 07:06:48;;;;;;;5.23;3.87;;;4.70;99.90;;;;;;5052445;28;20520;-67
2022/01/15 07:09:16;;;;;;;6.67;3.60;;;4.60;99.90;;;;;;5058796;28;21519;-66
2022/01/15 07:11:43;;;;;;;7.20;3.60;;;4.40;99.90;;;;;;5062059;28;20482;-68
2022/01/15 07:14:10;;;;;;;3.33;1.97;;;4.30;99.90;;;;;;5056168;28;20428;-66
2022/01/15 07:16:37;;;;;;;2.90;2.70;;;4.30;99.90;;;;;;5039615;28;20451;-67
2022/01/15 07:19:05;;;;;;;6.50;4.40;;;4.10;99.90;;;;;;5047509;28;20454;-68
2022/01/15 07:21:32;;;;;;;6.50;1.93;;;4.10;99.90;;;;;;5039891;28;20513;-67
2022/01/15 07:23:59;;;;;;;8.47;3.07;;;4.10;99.90;;;;;;5053073;28;20531;-66
2022/01/15 07:26:27;;;;;;;2.03;1.50;;;4.10;99.90;;;;;;5050330;28;22941;-67
2022/01/15 07:28:54;;;;;;;1.83;1.73;;;4.20;99.90;;;;;;5041796;28;20464;-67
2022/01/15 07:31:21;;;;;;;2.07;1.30;;;4.20;99.90;;;;;;5052165;28;20528;-67
2022/01/15 07:33:48;;;;;;;2.90;1.20;;;4.20;99.90;;;;;;5056291;28;20468;-66
2022/01/15 07:36:17;;;;;;;3.20;1.90;;;4.30;99.90;;;;;;5038011;28;20432;-67
2022/01/15 07:38:44;;;;;;;2.20;1.77;;;4.20;99.90;;;;;;5034495;28;22236;-65
2022/01/15 07:41:13;;;;;;;2.57;1.50;;;4.10;99.90;;;;;;5030994;28;20454;-67
2022/01/15 07:43:42;;;;;;;3.43;2.63;;;4.00;99.90;;;;;;5027069;28;20587;-66
2022/01/15 07:46:09;;;;;;;1.97;0.70;;;4.00;99.90;;;;;;5040134;28;20575;-67
2022/01/15 07:48:36;;;;;;;3.70;1.90;;;4.00;99.90;;;;;;5026738;28;20618;-69
2022/01/15 07:51:03;;;;;;;4.77;2.20;;;4.00;99.90;;;;;;5063106;28;20470;-65
2022/01/15 07:53:31;;;;;;;2.30;2.10;;;3.90;99.90;;;;;;5061057;28;20470;-67
2022/01/15 07:55:58;;;;;;;4.67;1.97;;;3.90;99.90;;;;;;5050342;28;20436;-66
2022/01/15 07:58:25;;;;;;;4.40;2.17;;;3.90;99.90;;;;;;5060948;28;20764;-67
2022/01/15 08:00:54;;;;;;;2.43;1.97;;;3.90;99.90;;;;;;5056256;28;20466;-68
2022/01/15 08:03:21;;;;;;;3.43;2.13;;;3.90;99.90;;;;;;5043045;28;22274;-67
2022/01/15 08:05:48;;;;;;;3.77;1.47;;;3.90;99.90;;;;;;5055874;28;20462;-66
2022/01/15 08:08:15;;;;;;;5.80;2.17;;;3.80;99.90;;;;;;5047151;28;20938;-69
2022/01/15 08:10:44;;;;;;;3.57;2.37;;;3.80;99.90;;;;;;5058594;28;20512;-67
2022/01/15 08:13:11;;;;;;;2.20;1.10;;;3.80;99.90;;;;;;5058195;28;20481;-66
2022/01/15 08:15:38;;;;;;;3.40;3.20;;;3.80;99.90;;;;;;5054382;28;22557;-66
2022/01/15 08:18:07;;;;;;;7.23;2.30;;;3.70;99.90;;;;;;5053436;28;20451;-66
2022/01/15 08:20:34;;;;;;;5.93;4.20;;;3.70;99.90;;;;;;5057488;28;21218;-66
2022/01/15 08:23:01;;;;;;;4.10;3.40;;;3.70;99.90;;;;;;5047906;28;20489;-68
2022/01/15 08:25:28;;;;;;;5.40;3.13;;;3.90;99.90;;;;;;5036913;28;20458;-67
2022/01/15 08:27:56;;;;;;;8.83;3.23;;;4.00;99.90;;;;;;5043164;28;20462;-68
2022/01/15 08:30:23;;;;;;;5.07;2.53;;;3.90;99.90;;;;;;5053036;28;20543;-67
2022/01/15 08:32:50;;;;;;;5.37;3.60;;;3.90;99.90;;;;;;5045589;28;20453;-67
2022/01/15 08:35:19;;;;;;;6.57;4.60;;;3.80;99.90;;;;;;5051904;28;20469;-68
2022/01/15 08:37:46;;;;;;;7.93;3.73;;;3.80;99.90;;;;;;5057555;28;20517;-67
2022/01/15 08:40:14;;;;;;;4.77;2.50;;;3.80;99.90;;;;;;5054660;28;20465;-68
2022/01/15 08:42:42;;;;;;;1.07;0.80;;;3.70;99.90;;;;;;5051894;28;20470;-68
2022/01/15 08:45:12;;;;;;;8.10;2.23;;;3.70;99.90;;;;;;5064731;28;20554;-67
2022/01/15 08:47:40;;;;;;;4.50;3.43;;;3.70;99.90;;;;;;5047130;28;20872;-66
2022/01/15 08:50:08;;;;;;;6.60;3.63;;;3.80;99.90;;;;;;5049963;28;20456;-66
2022/01/15 08:52:38;;;;;;;13.93;3.37;;;3.70;99.90;;;;;;5057757;28;20853;-66
2022/01/15 08:55:07;;;;;;;5.13;3.23;;;3.80;99.90;;;;;;5062310;28;20540;-67
2022/01/15 08:57:34;;;;;;;1.50;1.40;;;3.70;99.90;;;;;;5065841;28;20482;-66
2022/01/15 09:00:04;;;;;;;4.47;1.80;;;3.70;99.90;;;;;;5051961;28;20908;-66
2022/01/15 09:02:33;;;;;;;6.50;2.00;;;3.70;99.90;;;;;;5028133;28;20621;-66
2022/01/15 09:05:00;;;;;;;2.80;2.10;;;3.50;99.90;;;;;;5036415;28;20572;-66
2022/01/15 09:07:27;;;;;;;5.77;3.17;;;3.40;99.90;;;;;;5037785;28;20440;-65
2022/01/15 09:09:56;;;;;;;3.20;2.83;;;3.50;99.90;;;;;;5039484;28;20607;-65
2022/01/15 09:12:23;;;;;;;3.00;2.70;;;3.60;99.90;;;;;;5022718;28;20572;-66
2022/01/15 09:14:52;;;;;;;1.27;0.90;;;3.60;99.90;;;;;;5032737;28;21045;-66
2022/01/15 09:17:19;;;;;;;3.50;2.30;;;3.50;99.90;;;;;;5020502;28;20454;-66
2022/01/15 09:19:46;;;;;;;2.80;2.40;;;3.50;99.90;;;;;;5019384;28;20457;-67
2022/01/15 09:22:13;;;;;;;5.77;3.93;;;3.50;99.90;;;;;;5028991;28;20984;-67
2022/01/15 09:24:44;;;;;;;6.30;4.23;;;3.40;99.90;;;;;;5036254;28;27203;-67
2022/01/15 09:30:13;;;;;;;4.40;2.53;;;3.50;99.90;;;;;;5034572;28;20448;-66
2022/01/15 09:32:40;;;;;;;2.73;1.53;;;3.50;99.90;;;;;;5033666;28;20456;-69
2022/01/15 09:35:08;;;;;;;3.07;2.77;;;3.60;99.90;;;;;;5038048;28;20462;-67
2022/01/15 09:37:38;;;;;;;6.70;4.60;;;3.50;99.90;;;;;;5029768;28;20446;-68
2022/01/15 09:40:07;;;;;;;8.47;3.10;;;3.40;99.90;;;;;;5043908;28;20536;-67
2022/01/15 09:42:36;;;;;;;6.93;2.77;;;3.60;99.90;;;;;;5042338;28;20501;-67
2022/01/15 09:45:05;;;;;;;3.23;2.23;;;3.70;99.90;;;;;;5029354;28;20462;-67
2022/01/15 09:47:34;;;;;;;7.30;3.60;;;3.70;99.90;;;;;;5019274;28;20581;-67
2022/01/15 09:50:05;;;;;;;6.50;3.77;;;3.80;99.90;;;;;;5015472;28;20461;-67
2022/01/15 09:52:33;;;;;;;6.70;3.73;;;3.90;99.90;;;;;;5036965;28;20494;-67
2022/01/15 09:55:00;;;;;;;1.53;1.13;;;3.90;99.90;;;;;;5040788;28;20459;-67
2022/01/15 09:57:27;;;;;;;15.63;5.80;;;3.90;99.90;;;;;;5048366;28;20978;-67
2022/01/15 09:59:56;;;;;;;11.33;5.13;;;3.80;99.90;;;;;;5058614;28;20439;-67
2022/01/15 10:02:23;;;;;;;11.33;4.60;;;4.10;99.90;;;;;;5036727;28;20458;-66
2022/01/15 10:04:50;;;;;;;7.27;2.60;;;4.10;99.90;;;;;;5050038;28;20505;-67
2022/01/15 10:07:19;;;;;;;2.70;1.97;;;4.00;99.90;;;;;;5055915;28;20440;-67
2022/01/15 10:09:48;;;;;;;5.80;3.43;;;3.80;99.90;;;;;;5065267;28;20465;-66
2022/01/15 10:12:26;;;;;;;11.03;3.70;;;3.80;99.90;;;;;;5058224;28;20471;-66
2022/01/15 10:14:54;;;;;;;6.67;4.53;;;3.80;99.90;;;;;;5060467;28;20462;-66
2022/01/15 10:17:25;;;;;;;6.33;4.17;;;3.70;99.90;;;;;;5058130;28;20885;-67
2022/01/15 10:19:53;;;;;;;4.87;4.40;;;3.70;99.90;;;;;;5051689;28;20432;-67
2022/01/15 10:22:22;;;;;;;2.50;1.57;;;3.80;99.90;;;;;;5066172;28;20452;-66
2022/01/15 10:24:56;;;;;;;12.57;3.47;;;3.80;99.90;;;;;;5066889;28;20438;-67
2022/01/15 10:27:29;;;;;;;7.80;4.07;;;3.80;99.90;;;;;;5051746;28;21022;-67
2022/01/15 10:30:05;;;;;;;10.40;4.60;;;3.90;99.90;;;;;;5046507;28;20441;-66
2022/01/15 10:32:34;;;;;;;4.63;2.77;;;4.00;99.90;;;;;;5062951;28;20489;-67
2022/01/15 10:35:09;;;;;;;0.90;0.70;;;3.90;99.90;;;;;;5040231;28;21038;-66
2022/01/15 10:37:48;;;;;;;7.60;4.73;;;3.90;99.90;;;;;;5058134;28;20458;-66
2022/01/15 10:40:16;;;;;;;5.83;2.53;;;3.80;99.90;;;;;;5058829;28;20491;-67
2022/01/15 10:42:53;;;;;;;7.33;2.80;;;4.00;99.90;;;;;;5053741;28;20510;-67
2022/01/15 10:45:20;;;;;;;1.87;1.77;;;4.00;99.90;;;;;;5062187;28;20966;-67
2022/01/15 10:47:52;;;;;;;9.00;2.47;;;4.10;99.90;;;;;;5055180;28;20985;-67
2022/01/15 10:50:22;;;;;;;8.90;4.30;;;4.10;99.90;;;;;;5058426;28;20460;-67
2022/01/15 10:52:50;;;;;;;8.50;4.97;;;4.20;99.90;;;;;;5053080;28;20470;-66
2022/01/15 10:55:18;;;;;;;7.37;4.70;;;4.30;99.90;;;;;;5043122;28;20470;-67
2022/01/15 10:57:46;;;;;;;7.30;3.90;;;4.40;99.90;;;;;;5057465;28;20961;-67
2022/01/15 11:00:20;;;;;;;12.57;5.13;;;4.40;99.90;;;;;;5065307;28;20422;-67
2022/01/15 11:02:50;;;;;;;6.10;2.93;;;4.50;99.90;;;;;;5045395;28;20527;-67
2022/01/15 11:05:39;;;;;;;5.83;4.07;;;4.50;99.90;;;;;;5032853;28;20524;-66
2022/01/15 11:08:10;;;;;;;8.63;4.50;;;4.40;99.90;;;;;;5033858;28;20436;-66
2022/01/15 11:10:41;;;;;;;4.23;3.60;;;4.40;99.90;;;;;;5040982;28;20461;-66
2022/01/15 11:13:11;;;;;;;5.90;3.03;;;4.30;99.90;;;;;;5040674;28;20520;-67
2022/01/15 11:15:38;;;;;;;4.17;1.90;;;4.40;99.90;;;;;;5056835;28;20633;-66
2022/01/15 11:18:09;;;;;;;5.80;3.93;;;4.50;99.90;;;;;;5069830;28;20557;-66
2022/01/15 11:20:40;;;;;;;7.43;5.00;;;4.40;99.90;;;;;;5059669;28;20429;-67
2022/01/15 11:23:07;;;;;;;6.23;3.53;;;4.30;99.90;;;;;;5067281;28;20485;-66
2022/01/15 11:25:34;;;;;;;5.93;3.60;;;4.30;99.90;;;;;;5062137;28;20493;-66
2022/01/15 11:28:05;;;;;;;3.73;3.27;;;4.30;99.90;;;;;;5067137;28;20937;-67
2022/01/15 11:30:32;;;;;;;5.90;3.70;;;4.30;99.90;;;;;;5065292;28;20969;-66
2022/01/15 11:33:00;;;;;;;3.40;2.07;;;4.50;99.90;;;;;;5063803;28;20483;-66
2022/01/15 11:35:40;;;;;;;8.90;3.20;;;4.50;99.90;;;;;;5066984;28;20491;-66
2022/01/15 11:38:07;;;;;;;8.57;3.10;;;4.70;99.90;;;;;;5063523;28;20928;-65
2022/01/15 11:40:40;;;;;;;11.03;3.77;;;4.80;99.90;;;;;;5048854;28;21059;-67
2022/01/15 11:43:39;;;;;;;14.33;7.03;;;4.80;99.90;;;;;;5057408;28;20542;-67
2022/01/15 11:46:25;;;;;;;7.70;4.63;;;4.70;99.90;;;;;;5055175;28;20453;-66
2022/01/15 11:49:11;;;;;;;4.63;3.07;;;4.60;99.90;;;;;;5062942;28;20582;-67
2022/01/15 11:51:40;;;;;;;3.60;2.37;;;4.50;99.90;;;;;;5059742;28;20562;-66
2022/01/15 11:54:12;;;;;;;6.73;2.63;;;4.60;99.90;;;;;;5055618;28;20496;-65
2022/01/15 11:56:42;;;;;;;16.63;3.50;;;4.60;99.90;;;;;;5059743;28;20586;-66
2022/01/15 11:59:42;;;;;;;8.37;3.77;;;4.70;99.90;;;;;;5059199;28;20485;-66
2022/01/15 12:02:26;;;;;;;5.30;3.73;;;5.00;99.90;;;;;;5053282;28;20461;-66
2022/01/15 12:04:53;;;;;;;7.53;4.90;;;5.10;99.90;;;;;;5036706;28;20550;-66
2022/01/15 12:07:23;;;;;;;10.17;5.37;;;5.20;99.90;;;;;;5045569;28;20453;-66
2022/01/15 12:09:51;;;;;;;8.93;5.53;;;5.20;99.90;;;;;;5046479;28;22459;-66
2022/01/15 12:12:44;;;;;;;4.57;2.70;;;5.30;99.90;;;;;;5044358;28;21359;-67
2022/01/15 12:15:14;;;;;;;4.73;2.80;;;5.10;99.90;;;;;;5039603;28;20523;-66
2022/01/15 12:17:43;;;;;;;4.67;2.67;;;4.90;99.90;;;;;;5058932;28;20462;-66
2022/01/15 12:20:33;;;;;;;3.53;2.70;;;4.60;99.90;;;;;;5046003;28;22369;-66
2022/01/15 12:23:02;;;;;;;5.07;2.37;;;4.60;99.90;;;;;;5040971;28;20512;-67
2022/01/15 12:25:31;;;;;;;9.53;4.63;;;4.70;99.90;;;;;;5043639;28;20976;-66
2022/01/15 12:28:02;;;;;;;5.93;4.60;;;4.70;99.90;;;;;;5050616;28;20429;-67
2022/01/15 12:30:31;;;;;;;4.00;3.37;;;4.70;99.90;;;;;;5052332;28;20432;-67
2022/01/15 12:33:00;;;;;;;7.97;5.03;;;4.80;99.90;;;;;;5056134;28;20508;-67
2022/01/15 12:35:30;;;;;;;5.77;3.80;;;5.00;99.90;;;;;;5060836;28;20424;-69
2022/01/15 12:38:02;;;;;;;6.10;4.03;;;5.20;99.90;;;;;;5050278;28;20464;-67
2022/01/15 12:40:34;;;;;;;6.13;4.23;;;5.00;99.90;;;;;;5067116;28;20421;-66
2022/01/15 12:43:04;;;;;;;4.70;2.60;;;4.90;99.90;;;;;;5058717;28;20488;-65
2022/01/15 12:45:32;;;;;;;3.87;2.70;;;4.80;99.90;;;;;;5066261;28;20557;-67
2022/01/15 12:48:00;;;;;;;3.00;2.67;;;4.60;99.90;;;;;;5046468;28;20452;-66
2022/01/15 12:50:29;;;;;;;6.73;4.10;;;4.40;99.90;;;;;;5032585;28;20550;-66
2022/01/15 12:53:02;;;;;;;8.30;4.33;;;4.40;99.90;;;;;;5034119;28;20799;-67
2022/01/15 12:55:31;;;;;;;4.17;3.07;;;4.30;99.90;;;;;;5048995;28;21145;-68
2022/01/15 12:57:59;;;;;;;3.73;3.03;;;4.30;99.90;;;;;;5052401;28;21153;-66
2022/01/15 13:00:27;;;;;;;3.10;2.37;;;4.30;99.90;;;;;;5050643;28;20436;-66
2022/01/15 13:02:57;;;;;;;5.20;4.13;;;4.30;99.90;;;;;;5050539;28;20543;-66
2022/01/15 13:05:27;;;;;;;3.27;2.67;;;4.20;99.90;;;;;;5060429;28;20478;-66
2022/01/15 13:07:56;;;;;;;4.10;2.97;;;4.30;99.90;;;;;;5062520;28;20443;-67
2022/01/15 13:10:34;;;;;;;9.77;5.13;;;4.00;99.90;;;;;;5045031;28;20554;-67
2022/01/15 13:13:03;;;;;;;4.37;2.67;;;3.90;99.90;;;;;;5050622;28;20518;-66
2022/01/15 13:15:31;;;;;;;9.30;5.03;;;3.80;99.90;;;;;;5053495;28;20453;-68
2022/01/15 13:17:58;;;;;;;4.27;3.60;;;3.90;99.90;;;;;;5049994;28;20443;-66
2022/01/15 13:20:36;;;;;;;9.13;4.10;;;4.00;99.90;;;;;;5053124;28;20465;-67